Time;durP1;ratioP1;P1;durP2;ratioP2;P2;SDS_P1;SDS_P2;PMS_P1;PMS_P2;Temp;Humidity;BMP_temperature;BMP_pressure;BME280_temperature;BME280_humidity;BME280_pressure;Samples;Min_cycle;Max_cycle;Signal;HPM_P1;HPM_P2
2022/03/13 00:01:24;;;;;;;1.42;1.33;;;18.70;39.10;;;;;;5121373;28;20024;-38
2022/03/13 00:03:50;;;;;;;1.60;1.40;;;18.80;39.20;;;;;;5121431;28;20046;-38
2022/03/13 00:06:21;;;;;;;1.83;1.40;;;18.70;39.20;;;;;;5121729;28;20018;-39
2022/03/13 00:08:55;;;;;;;2.08;1.50;;;18.70;39.20;;;;;;5104586;28;20016;-38
2022/03/13 00:11:21;;;;;;;1.30;1.17;;;18.70;39.10;;;;;;5120445;28;20024;-40
2022/03/13 00:13:53;;;;;;;2.17;1.58;;;18.70;39.10;;;;;;5121306;28;20015;-38
2022/03/13 00:16:19;;;;;;;1.98;1.38;;;18.70;39.20;;;;;;5121142;28;20096;-39
2022/03/13 00:18:48;;;;;;;2.08;1.48;;;18.70;39.10;;;;;;5121315;28;20015;-39
2022/03/13 00:21:18;;;;;;;1.42;1.27;;;18.70;39.10;;;;;;5120898;28;20039;-38
2022/03/13 00:23:45;;;;;;;1.92;1.63;;;18.70;39.20;;;;;;5119891;28;20054;-38
2022/03/13 00:26:11;;;;;;;1.70;1.50;;;18.70;39.20;;;;;;5119669;28;20012;-38
2022/03/13 00:28:37;;;;;;;1.55;1.42;;;18.70;39.10;;;;;;5117673;28;20164;-39
2022/03/13 00:31:04;;;;;;;1.95;1.50;;;18.70;39.20;;;;;;5100580;28;20023;-38
2022/03/13 00:33:29;;;;;;;1.17;1.08;;;18.70;39.20;;;;;;5118369;28;20008;-38
2022/03/13 00:35:55;;;;;;;1.65;1.55;;;18.70;39.20;;;;;;5118996;28;20015;-38
2022/03/13 00:38:25;;;;;;;1.95;1.30;;;18.60;39.30;;;;;;5101691;28;20031;-40
2022/03/13 00:40:51;;;;;;;2.27;1.50;;;18.60;39.20;;;;;;5119423;28;20187;-39
2022/03/13 00:43:19;;;;;;;1.60;1.48;;;18.70;39.30;;;;;;5102748;28;20016;-42
2022/03/13 00:45:45;;;;;;;1.52;1.30;;;18.60;39.30;;;;;;5120033;28;20047;-43
2022/03/13 00:48:12;;;;;;;2.00;1.73;;;18.60;39.30;;;;;;5120612;28;20016;-40
2022/03/13 00:50:38;;;;;;;1.90;1.27;;;18.60;39.30;;;;;;5102627;28;20019;-40
2022/03/13 00:53:05;;;;;;;1.77;1.42;;;18.60;39.30;;;;;;5121665;28;20019;-38
2022/03/13 00:55:31;;;;;;;1.85;1.42;;;18.60;39.30;;;;;;5120995;28;20102;-39
2022/03/13 00:57:57;;;;;;;1.65;1.30;;;18.60;39.30;;;;;;5120814;28;20469;-39
2022/03/13 01:00:23;;;;;;;1.85;1.42;;;18.60;39.30;;;;;;5121491;28;20088;-41
2022/03/13 01:02:49;;;;;;;1.60;1.40;;;18.60;39.30;;;;;;5120612;28;20481;-39
2022/03/13 01:05:23;;;;;;;2.45;1.33;;;18.60;39.30;;;;;;5121708;28;20474;-40
2022/03/13 01:07:50;;;;;;;1.65;1.50;;;18.60;39.30;;;;;;5121479;28;20020;-40
2022/03/13 01:10:16;;;;;;;1.70;1.30;;;18.60;39.30;;;;;;5120036;28;20008;-38
2022/03/13 01:12:43;;;;;;;1.58;1.40;;;18.60;39.40;;;;;;5120454;28;20022;-40
2022/03/13 01:15:10;;;;;;;1.58;1.40;;;18.60;39.30;;;;;;5119213;28;20046;-38
2022/03/13 01:17:36;;;;;;;1.50;1.40;;;18.60;39.30;;;;;;5119488;28;20019;-39
2022/03/13 01:20:03;;;;;;;1.90;1.42;;;18.70;39.40;;;;;;5119225;28;20019;-40
2022/03/13 01:22:30;;;;;;;1.63;1.40;;;18.60;39.30;;;;;;5119283;28;20651;-37
2022/03/13 01:24:56;;;;;;;1.88;1.50;;;18.70;39.40;;;;;;5119115;28;20055;-37
2022/03/13 01:27:21;;;;;;;1.63;1.48;;;18.60;39.30;;;;;;5119596;28;20024;-38
2022/03/13 01:29:48;;;;;;;2.47;1.58;;;18.60;39.40;;;;;;5119869;28;20027;-38
2022/03/13 01:32:14;;;;;;;2.08;1.40;;;18.60;39.40;;;;;;5119744;28;20008;-39
2022/03/13 01:34:43;;;;;;;1.67;1.40;;;18.60;39.40;;;;;;5101612;28;20015;-38
2022/03/13 01:37:19;;;;;;;1.83;1.40;;;18.60;39.30;;;;;;5120261;28;20012;-40
2022/03/13 01:39:45;;;;;;;1.67;1.30;;;18.60;39.40;;;;;;5120463;28;20181;-38
2022/03/13 01:42:12;;;;;;;1.70;1.30;;;18.60;39.40;;;;;;5118980;28;20038;-38
2022/03/13 01:44:39;;;;;;;1.67;1.30;;;18.60;39.90;;;;;;5098912;28;20057;-38
2022/03/13 01:47:05;;;;;;;1.40;1.30;;;18.60;39.40;;;;;;5116512;28;20012;-39
2022/03/13 01:49:31;;;;;;;1.70;1.60;;;18.60;39.40;;;;;;5097885;28;20016;-37
2022/03/13 01:51:57;;;;;;;1.75;1.50;;;18.60;39.40;;;;;;5097652;28;20035;-37
2022/03/13 01:54:23;;;;;;;1.80;1.38;;;18.60;39.40;;;;;;5116084;28;20028;-39
2022/03/13 01:56:49;;;;;;;1.52;1.40;;;18.60;39.40;;;;;;5115932;28;20091;-38
2022/03/13 01:59:17;;;;;;;1.65;1.27;;;18.50;39.40;;;;;;5118806;28;20016;-37
2022/03/13 02:01:44;;;;;;;1.75;1.52;;;18.60;39.50;;;;;;5119981;28;20034;-38
2022/03/13 02:04:11;;;;;;;1.58;1.20;;;18.60;39.50;;;;;;5120654;28;20043;-43
2022/03/13 02:06:38;;;;;;;2.08;1.77;;;18.50;39.40;;;;;;5119805;28;20016;-39
2022/03/13 02:09:07;;;;;;;2.25;1.70;;;18.50;39.40;;;;;;5083636;28;20547;-39
2022/03/13 02:11:38;;;;;;;1.70;1.50;;;18.50;39.40;;;;;;5119064;28;20019;-40
2022/03/13 02:14:05;;;;;;;1.77;1.48;;;18.50;39.40;;;;;;5098897;28;20015;-40
2022/03/13 02:16:31;;;;;;;1.75;1.35;;;18.50;39.40;;;;;;5117544;28;20524;-43
2022/03/13 02:18:57;;;;;;;1.73;1.50;;;18.50;39.40;;;;;;5119326;28;20055;-39
2022/03/13 02:21:25;;;;;;;1.88;1.50;;;18.50;39.50;;;;;;5117712;28;20077;-40
2022/03/13 02:23:52;;;;;;;1.70;1.40;;;18.50;39.40;;;;;;5117072;28;20494;-39
2022/03/13 02:26:20;;;;;;;1.65;1.40;;;18.50;39.40;;;;;;5116601;28;20026;-40
2022/03/13 02:28:51;;;;;;;1.50;1.40;;;18.50;39.50;;;;;;5099062;28;20533;-38
2022/03/13 02:31:28;;;;;;;1.60;1.45;;;18.50;39.50;;;;;;5117072;28;20034;-37
2022/03/13 02:33:54;;;;;;;1.83;1.65;;;18.50;39.50;;;;;;5116694;28;20541;-38
2022/03/13 02:36:31;;;;;;;2.53;1.33;;;18.50;40.20;;;;;;5115686;28;20081;-40
2022/03/13 02:39:04;;;;;;;1.70;1.60;;;18.50;39.70;;;;;;5115351;28;20103;-40
2022/03/13 02:41:29;;;;;;;1.95;1.50;;;18.50;39.70;;;;;;5098454;28;20047;-39
2022/03/13 02:43:56;;;;;;;1.85;1.45;;;18.50;40.20;;;;;;5116480;28;20035;-39
2022/03/13 02:46:24;;;;;;;1.77;1.48;;;18.50;39.70;;;;;;5116681;28;20028;-38
2022/03/13 02:48:50;;;;;;;2.60;1.60;;;18.50;39.70;;;;;;5116695;28;20011;-37
2022/03/13 02:51:17;;;;;;;2.13;1.52;;;18.50;39.70;;;;;;5098371;28;20381;-40
2022/03/13 02:53:42;;;;;;;1.90;1.60;;;18.50;39.70;;;;;;5080723;28;20030;-38
2022/03/13 02:56:09;;;;;;;1.80;1.50;;;18.50;39.70;;;;;;5115923;28;20033;-40
2022/03/13 02:58:35;;;;;;;1.73;1.42;;;18.40;40.20;;;;;;5116058;28;20054;-38
2022/03/13 03:01:01;;;;;;;1.67;1.40;;;18.50;39.70;;;;;;5115709;28;20054;-38
2022/03/13 03:03:27;;;;;;;1.88;1.60;;;18.50;39.80;;;;;;5116766;28;20011;-39
2022/03/13 03:05:54;;;;;;;1.60;1.40;;;18.50;39.80;;;;;;5116035;28;20074;-40
2022/03/13 03:08:19;;;;;;;1.88;1.65;;;18.50;39.80;;;;;;5116206;28;20474;-39
2022/03/13 03:10:45;;;;;;;2.40;1.77;;;18.40;39.80;;;;;;5116389;28;20047;-41
2022/03/13 03:13:12;;;;;;;1.83;1.48;;;18.40;39.80;;;;;;5117092;28;20087;-39
2022/03/13 03:15:38;;;;;;;1.50;1.40;;;18.40;39.80;;;;;;5099463;28;20019;-38
2022/03/13 03:18:06;;;;;;;1.95;1.70;;;18.40;39.80;;;;;;5117983;28;20094;-38
2022/03/13 03:20:33;;;;;;;1.67;1.50;;;18.40;39.80;;;;;;5117720;28;20386;-38
2022/03/13 03:22:58;;;;;;;1.60;1.50;;;18.50;39.90;;;;;;5118619;28;20012;-37
2022/03/13 03:25:25;;;;;;;2.25;1.77;;;18.40;39.90;;;;;;5118067;28;20030;-38
2022/03/13 03:27:51;;;;;;;1.95;1.75;;;18.40;39.90;;;;;;5122672;28;20019;-37
2022/03/13 03:30:27;;;;;;;2.20;1.50;;;18.40;39.90;;;;;;5104114;28;20012;-40
2022/03/13 03:32:53;;;;;;;1.88;1.65;;;18.40;39.90;;;;;;5121407;28;20470;-40
2022/03/13 03:35:20;;;;;;;1.95;1.75;;;18.40;40.00;;;;;;5121142;28;20020;-40
2022/03/13 03:37:47;;;;;;;2.03;1.70;;;18.40;40.00;;;;;;5120923;28;20012;-39
2022/03/13 03:40:14;;;;;;;1.55;1.45;;;18.40;40.00;;;;;;5121129;28;20039;-38
2022/03/13 03:42:40;;;;;;;1.80;1.60;;;18.40;40.10;;;;;;5103807;28;20050;-38
2022/03/13 03:45:07;;;;;;;1.85;1.42;;;18.40;40.10;;;;;;5121421;28;20027;-40
2022/03/13 03:47:34;;;;;;;1.70;1.50;;;18.40;40.10;;;;;;5120405;28;20020;-38
2022/03/13 03:50:00;;;;;;;1.52;1.40;;;18.40;40.10;;;;;;5102888;28;20016;-38
2022/03/13 03:52:26;;;;;;;2.17;1.70;;;18.40;40.20;;;;;;5120031;28;20070;-38
2022/03/13 03:54:52;;;;;;;1.55;1.38;;;18.40;40.20;;;;;;5120115;28;20477;-39
2022/03/13 03:57:18;;;;;;;1.60;1.45;;;18.40;40.20;;;;;;5085054;28;20047;-40
2022/03/13 03:59:44;;;;;;;1.92;1.52;;;18.40;40.20;;;;;;5120045;28;20091;-38
2022/03/13 04:02:11;;;;;;;1.75;1.65;;;18.40;40.30;;;;;;5120668;28;20016;-38
2022/03/13 04:04:39;;;;;;;2.17;1.80;;;18.30;40.20;;;;;;5120723;28;20031;-38
2022/03/13 04:07:04;;;;;;;1.90;1.70;;;18.40;40.30;;;;;;5119842;28;20012;-38
2022/03/13 04:09:31;;;;;;;2.28;1.40;;;18.40;40.30;;;;;;5119910;28;20020;-37
2022/03/13 04:11:58;;;;;;;2.42;1.60;;;18.40;40.30;;;;;;5119044;28;20012;-39
2022/03/13 04:14:25;;;;;;;1.95;1.70;;;18.30;40.30;;;;;;5118840;28;20024;-37
2022/03/13 04:16:52;;;;;;;1.67;1.50;;;18.30;40.30;;;;;;5118796;28;20026;-38
2022/03/13 04:19:19;;;;;;;2.03;1.52;;;18.30;40.40;;;;;;5118254;28;20031;-37
2022/03/13 04:21:45;;;;;;;2.10;1.65;;;18.30;40.40;;;;;;5118555;28;20077;-37
2022/03/13 04:24:11;;;;;;;1.70;1.60;;;18.30;40.40;;;;;;5118756;28;20028;-38
2022/03/13 04:26:39;;;;;;;1.65;1.42;;;18.30;40.40;;;;;;5118795;28;20088;-38
2022/03/13 04:29:06;;;;;;;1.85;1.65;;;18.30;40.50;;;;;;5101905;28;20030;-41
2022/03/13 04:31:36;;;;;;;1.70;1.60;;;18.30;40.50;;;;;;5121234;28;20022;-39
2022/03/13 04:34:02;;;;;;;1.90;1.60;;;18.30;40.50;;;;;;5120521;28;20020;-39
2022/03/13 04:36:29;;;;;;;2.20;1.70;;;18.30;40.50;;;;;;5120253;28;20018;-40
2022/03/13 04:38:55;;;;;;;2.20;1.70;;;18.30;40.50;;;;;;5119629;28;20145;-38
2022/03/13 04:41:21;;;;;;;1.73;1.45;;;18.30;40.60;;;;;;5119673;28;20044;-37
2022/03/13 04:43:48;;;;;;;1.98;1.63;;;18.30;40.60;;;;;;5120415;28;20095;-38
2022/03/13 04:46:16;;;;;;;2.67;2.03;;;18.30;40.60;;;;;;5120904;28;20043;-38
2022/03/13 04:48:42;;;;;;;1.85;1.65;;;18.30;40.70;;;;;;5121040;28;20076;-40
2022/03/13 04:51:08;;;;;;;2.00;1.65;;;18.30;40.70;;;;;;5120756;28;20020;-38
2022/03/13 04:53:34;;;;;;;1.70;1.60;;;18.30;40.70;;;;;;5121194;28;20023;-38
2022/03/13 04:56:00;;;;;;;1.92;1.65;;;18.20;40.60;;;;;;5120091;28;20019;-40
2022/03/13 04:58:26;;;;;;;2.72;1.60;;;18.30;40.60;;;;;;5118998;28;20042;-39
2022/03/13 05:00:53;;;;;;;2.13;1.65;;;18.30;40.70;;;;;;5116555;28;20040;-37
2022/03/13 05:03:18;;;;;;;2.20;1.80;;;18.30;40.80;;;;;;5115948;28;20016;-39
2022/03/13 05:05:44;;;;;;;1.95;1.60;;;18.30;40.80;;;;;;5116270;28;20609;-39
2022/03/13 05:08:13;;;;;;;2.03;1.77;;;18.30;40.80;;;;;;5115998;28;20073;-41
2022/03/13 05:10:40;;;;;;;1.83;1.60;;;18.30;40.80;;;;;;5116112;28;20489;-37
2022/03/13 05:13:07;;;;;;;2.08;1.80;;;18.30;40.80;;;;;;5116582;28;20085;-40
2022/03/13 05:15:33;;;;;;;2.20;1.92;;;18.30;40.80;;;;;;5119177;28;20103;-38
2022/03/13 05:18:00;;;;;;;2.05;1.80;;;18.20;40.90;;;;;;5119678;28;20043;-37
2022/03/13 05:20:26;;;;;;;1.98;1.67;;;18.20;40.90;;;;;;5119576;28;20477;-38
2022/03/13 05:22:53;;;;;;;1.95;1.75;;;18.30;41.00;;;;;;5118715;28;20024;-37
2022/03/13 05:25:19;;;;;;;2.15;1.60;;;18.20;40.90;;;;;;5118615;28;20035;-40
2022/03/13 05:27:45;;;;;;;1.88;1.70;;;18.20;40.90;;;;;;5117357;28;20012;-37
2022/03/13 05:30:13;;;;;;;2.10;1.80;;;18.20;40.90;;;;;;5114476;28;20016;-37
2022/03/13 05:32:39;;;;;;;1.70;1.60;;;18.20;41.00;;;;;;5114555;28;20051;-37
2022/03/13 05:35:07;;;;;;;1.70;1.60;;;18.20;41.00;;;;;;5114661;28;20019;-37
2022/03/13 05:37:33;;;;;;;2.15;1.75;;;18.30;41.00;;;;;;5114696;28;20056;-38
2022/03/13 05:40:00;;;;;;;1.63;1.48;;;18.20;41.00;;;;;;5114276;28;20039;-37
2022/03/13 05:42:28;;;;;;;2.20;1.73;;;18.20;41.00;;;;;;5114477;28;20032;-39
2022/03/13 05:44:55;;;;;;;2.00;1.80;;;18.20;41.10;;;;;;5119456;28;20031;-38
2022/03/13 05:47:21;;;;;;;1.75;1.65;;;18.20;41.10;;;;;;5119157;28;20008;-37
2022/03/13 05:49:48;;;;;;;2.40;1.90;;;18.20;41.10;;;;;;5118632;28;20023;-38
2022/03/13 05:52:15;;;;;;;2.17;1.80;;;18.20;41.20;;;;;;5118199;28;20016;-37
2022/03/13 05:54:44;;;;;;;2.38;1.80;;;18.20;41.10;;;;;;5118478;28;20046;-36
2022/03/13 05:57:10;;;;;;;1.98;1.70;;;18.20;41.10;;;;;;5118220;28;20030;-37
2022/03/13 05:59:39;;;;;;;2.58;2.00;;;18.20;41.20;;;;;;5116089;28;20019;-38
2022/03/13 06:02:05;;;;;;;2.00;1.60;;;18.20;41.20;;;;;;5116253;28;20023;-38
2022/03/13 06:04:32;;;;;;;2.30;1.70;;;18.20;41.20;;;;;;5116463;28;20110;-36
2022/03/13 06:06:58;;;;;;;2.35;1.83;;;18.20;41.20;;;;;;5116307;28;20069;-37
2022/03/13 06:09:25;;;;;;;1.88;1.65;;;18.20;41.20;;;;;;5116353;28;20103;-37
2022/03/13 06:11:52;;;;;;;2.00;1.80;;;18.20;41.20;;;;;;5116790;28;20016;-38
2022/03/13 06:14:18;;;;;;;2.17;1.92;;;18.20;41.20;;;;;;5116016;28;20012;-37
2022/03/13 06:16:44;;;;;;;2.55;1.85;;;18.20;41.20;;;;;;5115528;28;20012;-38
2022/03/13 06:19:10;;;;;;;2.30;1.98;;;18.20;41.20;;;;;;5115644;28;20027;-36
2022/03/13 06:21:36;;;;;;;2.35;1.75;;;18.20;41.20;;;;;;5116316;28;20492;-39
2022/03/13 06:24:02;;;;;;;2.00;1.80;;;18.20;41.30;;;;;;5098082;28;20389;-37
2022/03/13 06:26:28;;;;;;;1.98;1.70;;;18.20;41.30;;;;;;5116221;28;20028;-37
2022/03/13 06:28:55;;;;;;;1.85;1.73;;;18.20;41.30;;;;;;5116924;28;20012;-37
2022/03/13 06:31:21;;;;;;;2.00;1.80;;;18.10;41.30;;;;;;5117247;28;20018;-41
2022/03/13 06:33:47;;;;;;;2.50;1.98;;;18.20;41.30;;;;;;5117363;28;20026;-37
2022/03/13 06:36:13;;;;;;;2.30;1.88;;;18.10;41.30;;;;;;5117485;28;20107;-37
2022/03/13 06:38:39;;;;;;;2.30;1.88;;;18.20;41.30;;;;;;5117824;28;20007;-36
2022/03/13 06:41:06;;;;;;;2.00;1.80;;;18.20;41.30;;;;;;5117639;28;20039;-40
2022/03/13 06:43:34;;;;;;;2.17;1.98;;;18.20;41.30;;;;;;5116602;28;20023;-36
2022/03/13 06:46:01;;;;;;;2.65;2.20;;;18.20;41.20;;;;;;5115743;28;20072;-37
2022/03/13 06:48:26;;;;;;;2.45;1.90;;;18.40;40.90;;;;;;5115986;28;20095;-37
2022/03/13 06:50:53;;;;;;;2.10;1.90;;;18.50;40.40;;;;;;5116041;28;20554;-37
2022/03/13 06:53:19;;;;;;;2.20;2.00;;;18.60;40.40;;;;;;5116735;28;20012;-38
2022/03/13 06:55:44;;;;;;;2.00;1.75;;;18.70;40.10;;;;;;5116280;28;20377;-37
2022/03/13 06:58:11;;;;;;;3.13;2.05;;;18.70;40.10;;;;;;5098416;28;20537;-37
2022/03/13 07:00:36;;;;;;;2.28;1.90;;;18.90;39.90;;;;;;5117678;28;20023;-36
2022/03/13 07:03:02;;;;;;;2.30;2.05;;;18.80;39.90;;;;;;5103498;28;20053;-38
2022/03/13 07:05:30;;;;;;;2.75;2.10;;;18.80;39.90;;;;;;5121051;28;20034;-37
2022/03/13 07:07:57;;;;;;;2.40;1.98;;;18.90;39.80;;;;;;5121338;28;20039;-38
2022/03/13 07:10:23;;;;;;;2.17;1.85;;;19.00;39.60;;;;;;5122010;28;20443;-37
2022/03/13 07:12:48;;;;;;;2.75;1.90;;;19.00;39.40;;;;;;5102719;28;20047;-38
2022/03/13 07:15:14;;;;;;;3.47;2.08;;;19.10;39.40;;;;;;5121839;28;20458;-37
2022/03/13 07:17:44;;;;;;;3.28;2.10;;;19.10;39.30;;;;;;5122062;28;20469;-37
2022/03/13 07:20:10;;;;;;;;;;;19.20;39.20;;;;;;5122195;28;20015;-38
2022/03/13 07:22:36;;;;;;;1.90;1.70;;;19.20;39.10;;;;;;5136337;27;19958;-36
2022/03/13 07:25:03;;;;;;;2.10;1.85;;;19.30;38.90;;;;;;5120742;28;20031;-37
2022/03/13 07:27:29;;;;;;;2.40;2.20;;;19.30;38.70;;;;;;5120638;28;20019;-37
2022/03/13 07:29:56;;;;;;;2.45;2.00;;;19.50;38.60;;;;;;5119632;28;20397;-37
2022/03/13 07:32:23;;;;;;;2.33;2.10;;;19.60;38.30;;;;;;5100125;28;20087;-36
2022/03/13 07:34:50;;;;;;;2.40;2.10;;;19.70;37.90;;;;;;5117730;28;20355;-36
2022/03/13 07:37:16;;;;;;;2.53;2.08;;;19.90;37.70;;;;;;5117495;28;20016;-38
2022/03/13 07:39:47;;;;;;;2.30;2.00;;;20.00;37.50;;;;;;5117305;28;20032;-36
2022/03/13 07:42:13;;;;;;;2.80;2.17;;;20.00;37.30;;;;;;5116708;28;20490;-36
2022/03/13 07:44:39;;;;;;;2.33;2.13;;;20.10;37.30;;;;;;5119581;28;20023;-38
2022/03/13 07:47:06;;;;;;;2.05;1.83;;;20.10;37.10;;;;;;5120652;28;20084;-38
2022/03/13 07:49:32;;;;;;;2.63;2.10;;;20.20;37.10;;;;;;5120355;28;20020;-38
2022/03/13 07:51:59;;;;;;;2.50;2.30;;;20.20;36.90;;;;;;5120940;28;20016;-38
2022/03/13 07:54:25;;;;;;;2.45;2.00;;;20.30;36.90;;;;;;5121123;28;20022;-38
2022/03/13 07:56:52;;;;;;;3.22;2.10;;;20.30;36.80;;;;;;5120351;28;20028;-37
2022/03/13 07:59:22;;;;;;;;;;;20.40;36.80;;;;;;5118352;28;20024;-38
2022/03/13 08:01:50;;;;;;;2.67;2.13;;;20.40;36.60;;;;;;5116398;28;20258;-37
2022/03/13 08:04:17;;;;;;;2.22;2.00;;;20.50;36.50;;;;;;5116647;28;20024;-38
2022/03/13 08:06:43;;;;;;;2.95;2.20;;;20.60;36.30;;;;;;5116298;28;20014;-37
2022/03/13 08:09:10;;;;;;;2.30;2.08;;;20.70;36.20;;;;;;5116655;28;20012;-37
2022/03/13 08:11:36;;;;;;;2.63;2.00;;;20.70;36.20;;;;;;5116698;28;20020;-38
2022/03/13 08:14:02;;;;;;;2.30;2.10;;;20.80;36.00;;;;;;5099528;28;20131;-39
2022/03/13 08:16:28;;;;;;;3.70;2.20;;;20.80;35.80;;;;;;5100272;28;20014;-38
2022/03/13 08:18:55;;;;;;;2.40;2.20;;;21.00;35.70;;;;;;5100369;28;20020;-38
2022/03/13 08:21:21;;;;;;;2.60;2.13;;;21.00;35.60;;;;;;5117663;28;20020;-38
2022/03/13 08:23:47;;;;;;;2.33;2.13;;;21.10;35.40;;;;;;5118266;28;20011;-38
2022/03/13 08:26:13;;;;;;;2.30;2.10;;;21.20;35.40;;;;;;5117515;28;20072;-39
2022/03/13 08:28:42;;;;;;;3.20;2.47;;;21.20;35.30;;;;;;5119517;28;20064;-40
2022/03/13 08:31:08;;;;;;;2.22;1.95;;;21.30;35.20;;;;;;5102747;28;20015;-38
2022/03/13 08:33:34;;;;;;;2.47;2.20;;;21.30;35.10;;;;;;5101642;28;20020;-38
2022/03/13 08:36:01;;;;;;;2.28;1.92;;;21.30;35.50;;;;;;5119975;28;20015;-39
2022/03/13 08:38:28;;;;;;;2.75;2.40;;;21.50;34.80;;;;;;5119816;28;20027;-41
2022/03/13 08:40:54;;;;;;;2.55;2.33;;;21.50;34.70;;;;;;5119530;28;20062;-39
2022/03/13 08:43:20;;;;;;;3.38;2.20;;;21.60;34.60;;;;;;5119713;28;20020;-43
2022/03/13 08:45:47;;;;;;;2.67;2.45;;;21.60;34.60;;;;;;5120069;28;20482;-42
2022/03/13 08:48:14;;;;;;;2.63;2.28;;;21.70;34.50;;;;;;5119635;28;20652;-38
2022/03/13 08:50:39;;;;;;;2.65;2.28;;;21.70;34.40;;;;;;5118947;28;20039;-40
2022/03/13 08:53:05;;;;;;;2.40;2.10;;;21.80;34.30;;;;;;5119943;28;20043;-38
2022/03/13 08:55:32;;;;;;;2.42;2.22;;;21.80;34.20;;;;;;5101390;28;20015;-38
2022/03/13 08:57:58;;;;;;;3.03;2.47;;;21.90;34.20;;;;;;5119157;28;20047;-41
2022/03/13 09:00:26;;;;;;;2.97;2.25;;;21.90;34.10;;;;;;5118804;28;20034;-39
2022/03/13 09:02:53;;;;;;;2.47;2.28;;;21.90;33.90;;;;;;5118412;28;20019;-40
2022/03/13 09:05:19;;;;;;;2.30;2.10;;;22.00;33.90;;;;;;5117672;28;20023;-38
2022/03/13 09:07:44;;;;;;;2.30;2.10;;;22.00;33.90;;;;;;5117220;28;20015;-38
2022/03/13 09:10:11;;;;;;;2.63;2.10;;;22.10;33.80;;;;;;5117308;28;20091;-38
2022/03/13 09:12:37;;;;;;;2.63;2.20;;;22.10;33.70;;;;;;5117045;28;20027;-37
2022/03/13 09:15:04;;;;;;;2.33;2.00;;;22.10;33.60;;;;;;5118158;28;20121;-38
2022/03/13 09:17:30;;;;;;;2.30;2.10;;;22.10;33.60;;;;;;5118571;28;20023;-37
2022/03/13 09:19:56;;;;;;;2.53;2.13;;;22.10;33.60;;;;;;5117952;28;20020;-38
2022/03/13 09:22:25;;;;;;;2.80;2.50;;;22.10;33.60;;;;;;5119532;28;20118;-39
2022/03/13 09:24:51;;;;;;;2.30;2.10;;;22.20;33.50;;;;;;5118335;28;20024;-38
2022/03/13 09:27:17;;;;;;;2.30;2.10;;;22.20;33.50;;;;;;5118483;28;20039;-39
2022/03/13 09:29:51;;;;;;;2.63;2.30;;;22.20;33.40;;;;;;5117730;28;20484;-37
2022/03/13 09:32:17;;;;;;;2.25;2.05;;;22.20;33.40;;;;;;5100692;28;20015;-37
2022/03/13 09:34:43;;;;;;;2.03;1.83;;;22.20;33.40;;;;;;5100104;28;20020;-36
2022/03/13 09:37:09;;;;;;;2.25;2.00;;;22.20;33.40;;;;;;5118855;28;20016;-38
2022/03/13 09:39:36;;;;;;;2.42;2.20;;;22.30;33.40;;;;;;5119042;28;20026;-37
2022/03/13 09:42:03;;;;;;;2.95;2.30;;;22.30;33.30;;;;;;5117900;28;20038;-36
2022/03/13 09:44:28;;;;;;;2.63;2.30;;;22.30;33.20;;;;;;5117558;28;20015;-36
2022/03/13 09:46:54;;;;;;;2.88;2.10;;;22.30;33.20;;;;;;5099752;28;20079;-36
2022/03/13 09:49:21;;;;;;;2.90;2.40;;;22.40;33.20;;;;;;5118339;28;20373;-38
2022/03/13 09:51:47;;;;;;;2.45;2.05;;;22.40;33.30;;;;;;5118232;28;20073;-36
2022/03/13 09:54:20;;;;;;;2.55;2.15;;;22.30;33.20;;;;;;5118171;28;20024;-37
2022/03/13 09:56:46;;;;;;;2.85;2.30;;;22.30;33.20;;;;;;5099702;28;20087;-36
2022/03/13 09:59:13;;;;;;;2.30;2.10;;;22.40;33.30;;;;;;5116657;28;20008;-35
2022/03/13 10:01:39;;;;;;;2.28;2.08;;;22.40;33.20;;;;;;5115395;28;20038;-35
2022/03/13 10:04:05;;;;;;;2.30;2.00;;;22.40;33.10;;;;;;5096908;28;20474;-36
2022/03/13 10:06:33;;;;;;;2.40;2.20;;;22.40;33.00;;;;;;5096693;28;20016;-36
2022/03/13 10:08:59;;;;;;;2.30;2.10;;;22.50;33.20;;;;;;5113802;28;20137;-36
2022/03/13 10:11:34;;;;;;;2.20;2.00;;;22.50;33.00;;;;;;5114581;28;20512;-37
2022/03/13 10:14:07;;;;;;;2.40;2.20;;;22.50;33.00;;;;;;5115568;28;20091;-37
2022/03/13 10:16:38;;;;;;;2.28;2.03;;;22.50;32.90;;;;;;5115605;28;20008;-36
2022/03/13 10:19:16;;;;;;;3.05;2.20;;;22.50;33.00;;;;;;5115793;28;20474;-36
2022/03/13 10:22:05;;;;;;;2.40;2.20;;;22.50;32.90;;;;;;5115767;28;20012;-36
2022/03/13 10:24:51;;;;;;;2.80;2.50;;;22.50;32.90;;;;;;5097587;28;20024;-38
2022/03/13 10:27:18;;;;;;;2.20;2.00;;;22.50;32.90;;;;;;5115115;28;20015;-36
2022/03/13 10:29:45;;;;;;;2.83;2.40;;;22.50;32.90;;;;;;5114145;28;20027;-36
2022/03/13 10:32:11;;;;;;;2.30;2.10;;;22.40;32.90;;;;;;5096542;28;20026;-37
2022/03/13 10:34:38;;;;;;;2.10;1.85;;;22.40;32.90;;;;;;5114504;28;20015;-36
2022/03/13 10:37:04;;;;;;;2.35;1.90;;;22.40;33.00;;;;;;5117743;28;20012;-36
2022/03/13 10:39:30;;;;;;;2.38;2.17;;;22.40;33.10;;;;;;5118070;28;20108;-37
2022/03/13 10:42:02;;;;;;;2.40;2.20;;;22.30;33.10;;;;;;5118499;28;20087;-38
2022/03/13 10:44:30;;;;;;;2.15;1.95;;;22.30;33.20;;;;;;5118904;28;20030;-36
2022/03/13 10:47:01;;;;;;;2.10;1.90;;;22.20;33.10;;;;;;5118864;28;20039;-37
2022/03/13 10:49:40;;;;;;;2.10;1.83;;;22.20;33.30;;;;;;5118670;28;20016;-36
2022/03/13 10:52:32;;;;;;;2.17;1.98;;;22.20;33.30;;;;;;5119072;28;20044;-37
2022/03/13 10:55:15;;;;;;;2.20;2.00;;;22.20;33.20;;;;;;5119708;28;20020;-36
2022/03/13 10:57:56;;;;;;;2.42;2.15;;;22.20;33.20;;;;;;5104394;28;20036;-36
2022/03/13 11:00:22;;;;;;;2.13;1.92;;;22.20;33.30;;;;;;5119728;28;20046;-37
2022/03/13 11:02:49;;;;;;;2.33;1.80;;;22.20;33.30;;;;;;5101646;28;20098;-37
2022/03/13 11:05:15;;;;;;;2.38;2.00;;;22.20;33.40;;;;;;5120077;28;20486;-37
2022/03/13 11:07:41;;;;;;;2.58;2.08;;;22.10;33.30;;;;;;5120020;28;20039;-38
2022/03/13 11:10:08;;;;;;;2.35;1.88;;;22.10;33.40;;;;;;5119546;28;20474;-37
2022/03/13 11:12:34;;;;;;;2.20;1.95;;;22.10;33.40;;;;;;5100469;28;20020;-39
2022/03/13 11:15:01;;;;;;;2.40;1.98;;;22.00;33.40;;;;;;5120156;28;20023;-39
2022/03/13 11:17:32;;;;;;;2.25;1.80;;;22.00;33.50;;;;;;5120173;28;20008;-37
2022/03/13 11:19:58;;;;;;;2.28;1.88;;;21.90;33.50;;;;;;5119160;28;20019;-41
2022/03/13 11:22:25;;;;;;;2.22;1.88;;;21.90;33.60;;;;;;5119856;28;20142;-37
2022/03/13 11:24:58;;;;;;;2.10;1.90;;;21.90;33.70;;;;;;5119177;28;20103;-39
2022/03/13 11:27:26;;;;;;;2.30;2.03;;;21.80;33.70;;;;;;5102108;28;20016;-37
2022/03/13 11:29:53;;;;;;;2.10;1.83;;;21.80;33.80;;;;;;5117195;28;20058;-37
2022/03/13 11:32:38;;;;;;;2.38;1.90;;;21.80;33.90;;;;;;5118120;28;20016;-36
2022/03/13 11:35:16;;;;;;;2.08;1.88;;;21.70;33.90;;;;;;5099410;28;20019;-36
2022/03/13 11:38:08;;;;;;;2.17;1.90;;;21.70;34.00;;;;;;5117129;28;20039;-36
2022/03/13 11:40:36;;;;;;;2.00;1.80;;;21.70;34.00;;;;;;5106525;28;20494;-39
2022/03/13 11:43:12;;;;;;;2.20;2.00;;;21.60;34.00;;;;;;5117090;28;20031;-36
2022/03/13 11:45:39;;;;;;;2.17;1.70;;;21.60;34.00;;;;;;5117645;28;20031;-36
2022/03/13 11:48:05;;;;;;;2.20;1.80;;;21.60;34.10;;;;;;5117580;28;20003;-36
2022/03/13 11:51:05;;;;;;;2.15;1.80;;;21.60;34.10;;;;;;5118111;28;20023;-36
2022/03/13 11:53:41;;;;;;;2.03;1.75;;;21.50;34.10;;;;;;5100439;28;20030;-36
2022/03/13 11:56:09;;;;;;;1.95;1.75;;;21.60;34.20;;;;;;5118871;28;20012;-36
2022/03/13 11:58:52;;;;;;;2.13;1.75;;;21.50;34.20;;;;;;5100400;28;20103;-36
2022/03/13 12:01:36;;;;;;;2.38;2.13;;;21.50;34.20;;;;;;5119135;28;20465;-36
2022/03/13 12:04:03;;;;;;;2.53;1.90;;;21.50;34.30;;;;;;5119552;28;20012;-37
2022/03/13 12:06:42;;;;;;;1.85;1.70;;;21.50;34.30;;;;;;5119007;28;20019;-37
2022/03/13 12:09:12;;;;;;;1.92;1.73;;;21.40;34.30;;;;;;5102049;28;20003;-36
2022/03/13 12:11:46;;;;;;;2.08;1.88;;;21.40;34.40;;;;;;5119144;28;20018;-40
2022/03/13 12:14:15;;;;;;;2.00;1.80;;;21.40;34.40;;;;;;5118443;28;20118;-37
2022/03/13 12:16:42;;;;;;;2.10;1.58;;;21.40;34.50;;;;;;5118095;28;20102;-38
2022/03/13 12:19:09;;;;;;;2.38;1.95;;;21.30;34.40;;;;;;5117563;28;20473;-37
2022/03/13 12:21:35;;;;;;;2.58;1.90;;;21.40;34.50;;;;;;5098944;28;20028;-37
2022/03/13 12:24:17;;;;;;;2.40;1.80;;;21.30;34.40;;;;;;5099223;28;20018;-38
2022/03/13 12:26:47;;;;;;;1.90;1.70;;;21.30;34.60;;;;;;5117384;28;20095;-37
2022/03/13 12:29:20;;;;;;;2.03;1.70;;;21.30;34.60;;;;;;5119545;28;20016;-37
2022/03/13 12:31:48;;;;;;;2.40;1.70;;;21.20;34.60;;;;;;5119208;28;20012;-40
2022/03/13 12:34:23;;;;;;;2.28;1.80;;;21.20;34.60;;;;;;5118726;28;20020;-37
2022/03/13 12:36:49;;;;;;;2.45;1.95;;;21.20;34.60;;;;;;5118879;27;20466;-38
2022/03/13 12:39:16;;;;;;;1.95;1.80;;;21.20;34.70;;;;;;5119359;28;20496;-38
2022/03/13 12:41:43;;;;;;;1.92;1.70;;;21.20;34.70;;;;;;5118325;28;20143;-37
2022/03/13 12:44:12;;;;;;;1.60;1.50;;;21.20;34.70;;;;;;5120581;28;20012;-37
2022/03/13 12:46:38;;;;;;;2.00;1.80;;;21.20;34.80;;;;;;5120732;28;20008;-39
2022/03/13 12:49:08;;;;;;;1.90;1.70;;;21.10;34.70;;;;;;5102368;28;20016;-37
2022/03/13 12:51:46;;;;;;;2.92;1.67;;;21.10;34.80;;;;;;5119872;28;20004;-38